sensor_id;sensor_type;location;lat;lon;timestamp;P1;durP1;ratioP1;P2;durP2;ratioP2
20040;SDS011;10181;48.072;9.884;2022-12-24T00:00:06;4.93;;;4.73;;
20040;SDS011;10181;48.072;9.884;2022-12-24T00:02:32;5.93;;;5.73;;
20040;SDS011;10181;48.072;9.884;2022-12-24T00:04:58;4.10;;;4.00;;
20040;SDS011;10181;48.072;9.884;2022-12-24T00:07:23;4.30;;;4.20;;
20040;SDS011;10181;48.072;9.884;2022-12-24T00:09:49;3.13;;;3.03;;
20040;SDS011;10181;48.072;9.884;2022-12-24T00:12:14;2.93;;;2.83;;
20040;SDS011;10181;48.072;9.884;2022-12-24T00:14:40;2.53;;;2.43;;
20040;SDS011;10181;48.072;9.884;2022-12-24T00:17:05;3.33;;;3.23;;
20040;SDS011;10181;48.072;9.884;2022-12-24T00:19:31;6.57;;;6.17;;
20040;SDS011;10181;48.072;9.884;2022-12-24T00:21:57;6.67;;;6.37;;
20040;SDS011;10181;48.072;9.884;2022-12-24T00:24:22;6.47;;;6.27;;
20040;SDS011;10181;48.072;9.884;2022-12-24T00:26:48;8.07;;;7.87;;
20040;SDS011;10181;48.072;9.884;2022-12-24T00:29:13;7.70;;;7.33;;
20040;SDS011;10181;48.072;9.884;2022-12-24T00:31:39;8.93;;;8.67;;
20040;SDS011;10181;48.072;9.884;2022-12-24T00:34:04;10.40;;;10.10;;
20040;SDS011;10181;48.072;9.884;2022-12-24T00:36:30;7.70;;;7.50;;
20040;SDS011;10181;48.072;9.884;2022-12-24T00:38:56;12.50;;;12.10;;
20040;SDS011;10181;48.072;9.884;2022-12-24T00:41:21;13.80;;;13.40;;
20040;SDS011;10181;48.072;9.884;2022-12-24T00:43:52;14.73;;;14.23;;
20040;SDS011;10181;48.072;9.884;2022-12-24T00:46:20;16.90;;;16.37;;
20040;SDS011;10181;48.072;9.884;2022-12-24T00:48:47;19.30;;;18.63;;
20040;SDS011;10181;48.072;9.884;2022-12-24T00:51:12;20.03;;;19.30;;
20040;SDS011;10181;48.072;9.884;2022-12-24T00:53:39;16.63;;;16.13;;
20040;SDS011;10181;48.072;9.884;2022-12-24T00:56:05;19.33;;;18.53;;
20040;SDS011;10181;48.072;9.884;2022-12-24T00:58:31;15.23;;;14.57;;
20040;SDS011;10181;48.072;9.884;2022-12-24T01:00:56;13.33;;;12.80;;
20040;SDS011;10181;48.072;9.884;2022-12-24T01:03:23;15.27;;;14.80;;
20040;SDS011;10181;48.072;9.884;2022-12-24T01:05:58;18.37;;;17.80;;
20040;SDS011;10181;48.072;9.884;2022-12-24T01:08:23;19.53;;;18.93;;
20040;SDS011;10181;48.072;9.884;2022-12-24T01:10:49;22.27;;;21.50;;
20040;SDS011;10181;48.072;9.884;2022-12-24T01:13:15;20.40;;;19.63;;
20040;SDS011;10181;48.072;9.884;2022-12-24T01:15:40;24.07;;;23.27;;
20040;SDS011;10181;48.072;9.884;2022-12-24T01:18:06;19.40;;;18.73;;
20040;SDS011;10181;48.072;9.884;2022-12-24T01:20:31;20.73;;;20.03;;
20040;SDS011;10181;48.072;9.884;2022-12-24T01:22:57;16.87;;;16.30;;
20040;SDS011;10181;48.072;9.884;2022-12-24T01:25:23;17.10;;;16.37;;
20040;SDS011;10181;48.072;9.884;2022-12-24T01:27:48;13.50;;;13.10;;
20040;SDS011;10181;48.072;9.884;2022-12-24T01:30:14;10.67;;;10.37;;
20040;SDS011;10181;48.072;9.884;2022-12-24T01:32:39;9.87;;;9.57;;
20040;SDS011;10181;48.072;9.884;2022-12-24T01:35:05;9.23;;;8.93;;
20040;SDS011;10181;48.072;9.884;2022-12-24T01:37:31;9.60;;;9.30;;
20040;SDS011;10181;48.072;9.884;2022-12-24T01:39:57;8.97;;;8.73;;
20040;SDS011;10181;48.072;9.884;2022-12-24T01:42:43;12.47;;;12.07;;
20040;SDS011;10181;48.072;9.884;2022-12-24T01:48:36;10.10;;;9.70;;
20040;SDS011;10181;48.072;9.884;2022-12-24T01:51:14;9.83;;;9.53;;
20040;SDS011;10181;48.072;9.884;2022-12-24T01:53:48;11.30;;;10.93;;
20040;SDS011;10181;48.072;9.884;2022-12-24T01:56:17;16.93;;;16.43;;
20040;SDS011;10181;48.072;9.884;2022-12-24T01:58:45;19.73;;;19.13;;
20040;SDS011;10181;48.072;9.884;2022-12-24T02:01:14;22.60;;;21.83;;
20040;SDS011;10181;48.072;9.884;2022-12-24T02:03:40;21.03;;;20.27;;
20040;SDS011;10181;48.072;9.884;2022-12-24T02:06:05;17.63;;;16.90;;
20040;SDS011;10181;48.072;9.884;2022-12-24T02:08:33;14.20;;;13.80;;
20040;SDS011;10181;48.072;9.884;2022-12-24T02:11:22;13.00;;;12.60;;
20040;SDS011;10181;48.072;9.884;2022-12-24T02:13:50;14.83;;;14.23;;
20040;SDS011;10181;48.072;9.884;2022-12-24T02:16:35;15.17;;;14.67;;
20040;SDS011;10181;48.072;9.884;2022-12-24T02:22:30;18.60;;;17.70;;
20040;SDS011;10181;48.072;9.884;2022-12-24T02:30:50;11.57;;;11.20;;
20040;SDS011;10181;48.072;9.884;2022-12-24T02:33:28;12.77;;;12.17;;
20040;SDS011;10181;48.072;9.884;2022-12-24T02:38:51;11.73;;;11.33;;
20040;SDS011;10181;48.072;9.884;2022-12-24T02:41:38;14.67;;;14.17;;
20040;SDS011;10181;48.072;9.884;2022-12-24T02:44:26;13.63;;;13.23;;
20040;SDS011;10181;48.072;9.884;2022-12-24T02:46:54;13.17;;;12.77;;
20040;SDS011;10181;48.072;9.884;2022-12-24T02:49:23;12.23;;;11.83;;
20040;SDS011;10181;48.072;9.884;2022-12-24T02:51:48;12.30;;;12.00;;
20040;SDS011;10181;48.072;9.884;2022-12-24T02:54:14;12.60;;;12.20;;
20040;SDS011;10181;48.072;9.884;2022-12-24T03:02:09;11.73;;;11.33;;
20040;SDS011;10181;48.072;9.884;2022-12-24T03:04:46;13.23;;;12.80;;
20040;SDS011;10181;48.072;9.884;2022-12-24T03:07:21;14.33;;;13.93;;
20040;SDS011;10181;48.072;9.884;2022-12-24T03:12:27;14.57;;;14.07;;
20040;SDS011;10181;48.072;9.884;2022-12-24T03:14:58;14.47;;;14.07;;
20040;SDS011;10181;48.072;9.884;2022-12-24T03:17:24;15.37;;;14.20;;
20040;SDS011;10181;48.072;9.884;2022-12-24T03:19:50;15.53;;;15.00;;
20040;SDS011;10181;48.072;9.884;2022-12-24T03:22:18;14.77;;;14.37;;
20040;SDS011;10181;48.072;9.884;2022-12-24T03:24:46;12.50;;;12.10;;
20040;SDS011;10181;48.072;9.884;2022-12-24T03:27:12;9.97;;;9.67;;
20040;SDS011;10181;48.072;9.884;2022-12-24T03:29:39;10.50;;;10.00;;
20040;SDS011;10181;48.072;9.884;2022-12-24T03:32:05;8.70;;;8.43;;
20040;SDS011;10181;48.072;9.884;2022-12-24T03:34:31;8.13;;;7.93;;
20040;SDS011;10181;48.072;9.884;2022-12-24T03:36:57;9.67;;;9.17;;
20040;SDS011;10181;48.072;9.884;2022-12-24T03:39:23;8.90;;;8.50;;
20040;SDS011;10181;48.072;9.884;2022-12-24T03:41:49;6.30;;;6.07;;
20040;SDS011;10181;48.072;9.884;2022-12-24T03:44:14;4.40;;;4.30;;
20040;SDS011;10181;48.072;9.884;2022-12-24T03:46:40;6.53;;;6.23;;
20040;SDS011;10181;48.072;9.884;2022-12-24T03:49:06;5.40;;;5.20;;
20040;SDS011;10181;48.072;9.884;2022-12-24T03:51:31;3.93;;;3.83;;
20040;SDS011;10181;48.072;9.884;2022-12-24T03:53:57;3.90;;;3.80;;
20040;SDS011;10181;48.072;9.884;2022-12-24T03:56:23;3.87;;;3.67;;
20040;SDS011;10181;48.072;9.884;2022-12-24T03:58:49;1.77;;;1.67;;
20040;SDS011;10181;48.072;9.884;2022-12-24T04:01:15;2.57;;;2.03;;
20040;SDS011;10181;48.072;9.884;2022-12-24T04:03:41;1.93;;;1.77;;
20040;SDS011;10181;48.072;9.884;2022-12-24T04:06:09;1.43;;;1.33;;
20040;SDS011;10181;48.072;9.884;2022-12-24T04:08:37;1.13;;;1.13;;
20040;SDS011;10181;48.072;9.884;2022-12-24T04:11:03;1.17;;;1.17;;
20040;SDS011;10181;48.072;9.884;2022-12-24T04:13:30;2.27;;;2.17;;
20040;SDS011;10181;48.072;9.884;2022-12-24T04:15:59;3.70;;;3.60;;
20040;SDS011;10181;48.072;9.884;2022-12-24T04:18:26;3.60;;;3.50;;
20040;SDS011;10181;48.072;9.884;2022-12-24T04:20:52;3.80;;;3.70;;
20040;SDS011;10181;48.072;9.884;2022-12-24T04:23:19;12.77;;;12.33;;
20040;SDS011;10181;48.072;9.884;2022-12-24T04:25:44;16.67;;;16.10;;
20040;SDS011;10181;48.072;9.884;2022-12-24T04:28:10;32.33;;;31.17;;
20040;SDS011;10181;48.072;9.884;2022-12-24T04:30:37;52.33;;;50.23;;
20040;SDS011;10181;48.072;9.884;2022-12-24T04:33:03;65.40;;;62.87;;
20040;SDS011;10181;48.072;9.884;2022-12-24T04:35:29;42.93;;;41.33;;
20040;SDS011;10181;48.072;9.884;2022-12-24T04:37:54;31.53;;;30.37;;
20040;SDS011;10181;48.072;9.884;2022-12-24T04:40:20;15.43;;;14.90;;
20040;SDS011;10181;48.072;9.884;2022-12-24T04:42:45;13.47;;;13.03;;
20040;SDS011;10181;48.072;9.884;2022-12-24T04:45:11;12.97;;;12.47;;
20040;SDS011;10181;48.072;9.884;2022-12-24T04:47:37;7.70;;;7.40;;
20040;SDS011;10181;48.072;9.884;2022-12-24T04:50:02;7.30;;;7.10;;
20040;SDS011;10181;48.072;9.884;2022-12-24T04:52:28;9.10;;;8.67;;
20040;SDS011;10181;48.072;9.884;2022-12-24T04:54:54;9.27;;;8.97;;
20040;SDS011;10181;48.072;9.884;2022-12-24T04:57:19;7.10;;;6.70;;
20040;SDS011;10181;48.072;9.884;2022-12-24T04:59:45;7.60;;;7.20;;
20040;SDS011;10181;48.072;9.884;2022-12-24T05:02:11;7.10;;;6.90;;
20040;SDS011;10181;48.072;9.884;2022-12-24T05:04:36;6.90;;;6.70;;
20040;SDS011;10181;48.072;9.884;2022-12-24T05:07:02;8.30;;;7.83;;
20040;SDS011;10181;48.072;9.884;2022-12-24T05:09:28;21.23;;;20.43;;
20040;SDS011;10181;48.072;9.884;2022-12-24T05:11:53;30.83;;;29.53;;
20040;SDS011;10181;48.072;9.884;2022-12-24T05:14:19;28.83;;;27.70;;
20040;SDS011;10181;48.072;9.884;2022-12-24T05:16:44;29.77;;;28.47;;
20040;SDS011;10181;48.072;9.884;2022-12-24T05:19:10;50.60;;;48.67;;
20040;SDS011;10181;48.072;9.884;2022-12-24T05:21:36;49.83;;;47.97;;
20040;SDS011;10181;48.072;9.884;2022-12-24T05:24:01;58.23;;;56.10;;
20040;SDS011;10181;48.072;9.884;2022-12-24T05:26:49;62.40;;;60.03;;
20040;SDS011;10181;48.072;9.884;2022-12-24T05:29:18;56.73;;;54.40;;
20040;SDS011;10181;48.072;9.884;2022-12-24T05:31:44;67.47;;;64.73;;
20040;SDS011;10181;48.072;9.884;2022-12-24T05:34:11;67.90;;;65.00;;
20040;SDS011;10181;48.072;9.884;2022-12-24T05:36:38;71.97;;;67.37;;
20040;SDS011;10181;48.072;9.884;2022-12-24T05:39:03;79.53;;;73.53;;
20040;SDS011;10181;48.072;9.884;2022-12-24T05:41:30;139.37;;;98.13;;
20040;SDS011;10181;48.072;9.884;2022-12-24T05:43:55;183.17;;;118.33;;
20040;SDS011;10181;48.072;9.884;2022-12-24T05:46:22;236.60;;;136.90;;
20040;SDS011;10181;48.072;9.884;2022-12-24T05:48:49;111.43;;;95.23;;
20040;SDS011;10181;48.072;9.884;2022-12-24T05:51:16;469.33;;;268.27;;
20040;SDS011;10181;48.072;9.884;2022-12-24T05:53:43;180.90;;;101.00;;
20040;SDS011;10181;48.072;9.884;2022-12-24T05:56:11;39.03;;;35.60;;
20040;SDS011;10181;48.072;9.884;2022-12-24T05:58:39;24.67;;;23.43;;
20040;SDS011;10181;48.072;9.884;2022-12-24T06:01:05;34.23;;;32.70;;
20040;SDS011;10181;48.072;9.884;2022-12-24T06:03:33;32.67;;;31.23;;
20040;SDS011;10181;48.072;9.884;2022-12-24T06:06:01;12.13;;;11.57;;
20040;SDS011;10181;48.072;9.884;2022-12-24T06:08:35;6.50;;;6.20;;
20040;SDS011;10181;48.072;9.884;2022-12-24T06:11:03;2.93;;;2.73;;
20040;SDS011;10181;48.072;9.884;2022-12-24T06:13:31;2.77;;;2.57;;
20040;SDS011;10181;48.072;9.884;2022-12-24T06:15:58;5.57;;;5.33;;
20040;SDS011;10181;48.072;9.884;2022-12-24T06:18:25;6.20;;;5.90;;
20040;SDS011;10181;48.072;9.884;2022-12-24T06:20:52;10.13;;;9.70;;
20040;SDS011;10181;48.072;9.884;2022-12-24T06:23:19;7.87;;;7.60;;
20040;SDS011;10181;48.072;9.884;2022-12-24T06:25:46;8.07;;;7.83;;
20040;SDS011;10181;48.072;9.884;2022-12-24T06:28:11;10.33;;;9.93;;
20040;SDS011;10181;48.072;9.884;2022-12-24T06:30:38;6.97;;;6.77;;
20040;SDS011;10181;48.072;9.884;2022-12-24T06:33:03;16.63;;;16.07;;
20040;SDS011;10181;48.072;9.884;2022-12-24T06:35:32;21.23;;;20.50;;
20040;SDS011;10181;48.072;9.884;2022-12-24T06:37:58;19.57;;;18.83;;
20040;SDS011;10181;48.072;9.884;2022-12-24T06:40:24;19.50;;;18.80;;
20040;SDS011;10181;48.072;9.884;2022-12-24T06:42:51;25.97;;;25.00;;
20040;SDS011;10181;48.072;9.884;2022-12-24T06:45:16;13.53;;;12.97;;
20040;SDS011;10181;48.072;9.884;2022-12-24T06:47:42;6.20;;;5.80;;
20040;SDS011;10181;48.072;9.884;2022-12-24T06:50:08;5.10;;;3.70;;
20040;SDS011;10181;48.072;9.884;2022-12-24T06:52:33;3.23;;;1.53;;
20040;SDS011;10181;48.072;9.884;2022-12-24T06:54:59;2.87;;;1.30;;
20040;SDS011;10181;48.072;9.884;2022-12-24T06:57:25;1.60;;;1.50;;
20040;SDS011;10181;48.072;9.884;2022-12-24T06:59:51;2.10;;;1.30;;
20040;SDS011;10181;48.072;9.884;2022-12-24T07:02:16;3.80;;;2.00;;
20040;SDS011;10181;48.072;9.884;2022-12-24T07:04:42;3.07;;;2.10;;
20040;SDS011;10181;48.072;9.884;2022-12-24T07:07:07;1.70;;;1.60;;
20040;SDS011;10181;48.072;9.884;2022-12-24T07:09:33;1.77;;;1.33;;
20040;SDS011;10181;48.072;9.884;2022-12-24T07:11:58;3.20;;;2.20;;
20040;SDS011;10181;48.072;9.884;2022-12-24T07:14:24;2.27;;;1.90;;
20040;SDS011;10181;48.072;9.884;2022-12-24T07:16:50;4.97;;;3.13;;
20040;SDS011;10181;48.072;9.884;2022-12-24T07:19:17;5.40;;;3.47;;
20040;SDS011;10181;48.072;9.884;2022-12-24T07:21:42;1.70;;;1.60;;
20040;SDS011;10181;48.072;9.884;2022-12-24T07:24:08;3.30;;;1.60;;
20040;SDS011;10181;48.072;9.884;2022-12-24T07:26:34;3.37;;;3.10;;
20040;SDS011;10181;48.072;9.884;2022-12-24T07:28:59;3.50;;;2.17;;
20040;SDS011;10181;48.072;9.884;2022-12-24T07:31:25;2.53;;;2.00;;
20040;SDS011;10181;48.072;9.884;2022-12-24T07:33:51;2.60;;;2.33;;
20040;SDS011;10181;48.072;9.884;2022-12-24T07:36:18;3.37;;;2.30;;
20040;SDS011;10181;48.072;9.884;2022-12-24T07:38:45;2.67;;;2.47;;
20040;SDS011;10181;48.072;9.884;2022-12-24T07:41:11;1.50;;;1.37;;
20040;SDS011;10181;48.072;9.884;2022-12-24T07:43:37;1.70;;;1.33;;
20040;SDS011;10181;48.072;9.884;2022-12-24T07:46:03;1.70;;;1.47;;
20040;SDS011;10181;48.072;9.884;2022-12-24T07:48:30;2.30;;;1.40;;
20040;SDS011;10181;48.072;9.884;2022-12-24T07:50:57;1.30;;;1.30;;
20040;SDS011;10181;48.072;9.884;2022-12-24T07:53:23;4.67;;;2.50;;
20040;SDS011;10181;48.072;9.884;2022-12-24T07:55:49;3.37;;;3.27;;
20040;SDS011;10181;48.072;9.884;2022-12-24T07:58:15;6.30;;;6.00;;
20040;SDS011;10181;48.072;9.884;2022-12-24T08:00:41;8.17;;;7.97;;
20040;SDS011;10181;48.072;9.884;2022-12-24T08:03:08;17.30;;;16.63;;
20040;SDS011;10181;48.072;9.884;2022-12-24T08:05:41;20.27;;;19.40;;
20040;SDS011;10181;48.072;9.884;2022-12-24T08:08:07;18.80;;;18.00;;
20040;SDS011;10181;48.072;9.884;2022-12-24T08:10:33;7.77;;;7.53;;
20040;SDS011;10181;48.072;9.884;2022-12-24T08:12:58;5.90;;;5.70;;
20040;SDS011;10181;48.072;9.884;2022-12-24T08:15:24;8.70;;;8.30;;
20040;SDS011;10181;48.072;9.884;2022-12-24T08:17:49;4.63;;;4.50;;
20040;SDS011;10181;48.072;9.884;2022-12-24T08:20:15;7.57;;;7.10;;
20040;SDS011;10181;48.072;9.884;2022-12-24T08:22:41;7.23;;;7.03;;
20040;SDS011;10181;48.072;9.884;2022-12-24T08:25:07;5.87;;;5.70;;
20040;SDS011;10181;48.072;9.884;2022-12-24T08:27:34;4.13;;;4.03;;
20040;SDS011;10181;48.072;9.884;2022-12-24T08:30:00;5.03;;;4.80;;
20040;SDS011;10181;48.072;9.884;2022-12-24T08:32:26;5.00;;;4.80;;
20040;SDS011;10181;48.072;9.884;2022-12-24T08:34:51;2.77;;;2.57;;
20040;SDS011;10181;48.072;9.884;2022-12-24T08:37:17;3.20;;;2.93;;
20040;SDS011;10181;48.072;9.884;2022-12-24T08:39:42;3.50;;;3.10;;
20040;SDS011;10181;48.072;9.884;2022-12-24T08:42:08;3.73;;;3.43;;
20040;SDS011;10181;48.072;9.884;2022-12-24T08:44:34;3.10;;;2.90;;
20040;SDS011;10181;48.072;9.884;2022-12-24T08:46:59;4.57;;;3.87;;
20040;SDS011;10181;48.072;9.884;2022-12-24T08:49:25;4.87;;;4.77;;
20040;SDS011;10181;48.072;9.884;2022-12-24T08:51:51;9.47;;;9.20;;
20040;SDS011;10181;48.072;9.884;2022-12-24T08:54:16;8.63;;;8.43;;
20040;SDS011;10181;48.072;9.884;2022-12-24T08:56:42;11.47;;;10.87;;
20040;SDS011;10181;48.072;9.884;2022-12-24T08:59:09;12.53;;;12.13;;
20040;SDS011;10181;48.072;9.884;2022-12-24T09:01:36;17.17;;;16.47;;
20040;SDS011;10181;48.072;9.884;2022-12-24T09:04:02;16.27;;;15.63;;
20040;SDS011;10181;48.072;9.884;2022-12-24T09:06:30;18.43;;;17.83;;
20040;SDS011;10181;48.072;9.884;2022-12-24T09:08:56;18.07;;;17.47;;
20040;SDS011;10181;48.072;9.884;2022-12-24T09:11:22;20.47;;;19.87;;
20040;SDS011;10181;48.072;9.884;2022-12-24T09:13:48;16.03;;;15.40;;
20040;SDS011;10181;48.072;9.884;2022-12-24T09:16:14;16.33;;;15.53;;
20040;SDS011;10181;48.072;9.884;2022-12-24T09:18:39;13.23;;;12.83;;
20040;SDS011;10181;48.072;9.884;2022-12-24T09:21:06;13.23;;;12.73;;
20040;SDS011;10181;48.072;9.884;2022-12-24T09:23:34;11.00;;;10.70;;
20040;SDS011;10181;48.072;9.884;2022-12-24T09:26:04;13.83;;;13.37;;
20040;SDS011;10181;48.072;9.884;2022-12-24T09:28:35;14.47;;;14.07;;
20040;SDS011;10181;48.072;9.884;2022-12-24T09:31:02;14.30;;;13.67;;
20040;SDS011;10181;48.072;9.884;2022-12-24T09:33:30;13.57;;;13.07;;
20040;SDS011;10181;48.072;9.884;2022-12-24T09:36:00;13.30;;;12.90;;
20040;SDS011;10181;48.072;9.884;2022-12-24T09:38:27;13.97;;;13.47;;
20040;SDS011;10181;48.072;9.884;2022-12-24T09:40:53;15.10;;;14.67;;
20040;SDS011;10181;48.072;9.884;2022-12-24T09:43:23;15.33;;;14.87;;
20040;SDS011;10181;48.072;9.884;2022-12-24T09:48:42;18.03;;;17.43;;
20040;SDS011;10181;48.072;9.884;2022-12-24T09:51:15;14.97;;;14.43;;
20040;SDS011;10181;48.072;9.884;2022-12-24T09:53:50;10.87;;;10.43;;
20040;SDS011;10181;48.072;9.884;2022-12-24T09:56:40;14.43;;;14.03;;
20040;SDS011;10181;48.072;9.884;2022-12-24T09:59:10;13.90;;;13.50;;
20040;SDS011;10181;48.072;9.884;2022-12-24T10:01:40;18.83;;;18.23;;
20040;SDS011;10181;48.072;9.884;2022-12-24T10:04:09;15.37;;;14.90;;
20040;SDS011;10181;48.072;9.884;2022-12-24T10:12:21;13.57;;;13.10;;
20040;SDS011;10181;48.072;9.884;2022-12-24T10:15:19;15.33;;;14.83;;
20040;SDS011;10181;48.072;9.884;2022-12-24T10:25:27;12.97;;;12.67;;
20040;SDS011;10181;48.072;9.884;2022-12-24T10:27:59;9.17;;;8.77;;
20040;SDS011;10181;48.072;9.884;2022-12-24T10:30:27;8.60;;;8.30;;
20040;SDS011;10181;48.072;9.884;2022-12-24T10:32:54;8.20;;;8.00;;
20040;SDS011;10181;48.072;9.884;2022-12-24T10:37:58;6.40;;;6.17;;
20040;SDS011;10181;48.072;9.884;2022-12-24T10:40:31;6.60;;;6.50;;
20040;SDS011;10181;48.072;9.884;2022-12-24T10:42:58;6.77;;;6.53;;
20040;SDS011;10181;48.072;9.884;2022-12-24T10:45:25;5.20;;;5.10;;
20040;SDS011;10181;48.072;9.884;2022-12-24T10:48:02;6.70;;;6.40;;
20040;SDS011;10181;48.072;9.884;2022-12-24T10:50:35;3.97;;;3.87;;
20040;SDS011;10181;48.072;9.884;2022-12-24T10:53:18;4.60;;;4.50;;
20040;SDS011;10181;48.072;9.884;2022-12-24T10:56:02;5.07;;;4.97;;
20040;SDS011;10181;48.072;9.884;2022-12-24T10:58:30;3.80;;;3.70;;
20040;SDS011;10181;48.072;9.884;2022-12-24T11:00:56;3.67;;;3.57;;
20040;SDS011;10181;48.072;9.884;2022-12-24T11:06:08;3.40;;;3.30;;
20040;SDS011;10181;48.072;9.884;2022-12-24T11:08:34;3.67;;;3.57;;
20040;SDS011;10181;48.072;9.884;2022-12-24T11:11:03;2.50;;;2.40;;
20040;SDS011;10181;48.072;9.884;2022-12-24T11:13:32;1.63;;;1.63;;
20040;SDS011;10181;48.072;9.884;2022-12-24T11:16:24;1.53;;;1.53;;
20040;SDS011;10181;48.072;9.884;2022-12-24T11:19:00;1.37;;;1.37;;
20040;SDS011;10181;48.072;9.884;2022-12-24T11:21:28;1.10;;;1.10;;
20040;SDS011;10181;48.072;9.884;2022-12-24T11:26:32;1.10;;;1.10;;
20040;SDS011;10181;48.072;9.884;2022-12-24T11:31:46;1.20;;;1.20;;
20040;SDS011;10181;48.072;9.884;2022-12-24T11:34:26;0.80;;;0.80;;
20040;SDS011;10181;48.072;9.884;2022-12-24T11:36:55;0.70;;;0.70;;
20040;SDS011;10181;48.072;9.884;2022-12-24T11:39:44;0.70;;;0.70;;
20040;SDS011;10181;48.072;9.884;2022-12-24T11:42:21;1.40;;;0.80;;
20040;SDS011;10181;48.072;9.884;2022-12-24T11:44:59;1.30;;;1.20;;
20040;SDS011;10181;48.072;9.884;2022-12-24T11:47:39;0.90;;;0.90;;
20040;SDS011;10181;48.072;9.884;2022-12-24T11:52:46;1.00;;;1.00;;
20040;SDS011;10181;48.072;9.884;2022-12-24T11:55:52;1.00;;;1.00;;
20040;SDS011;10181;48.072;9.884;2022-12-24T12:04:32;1.13;;;1.13;;
20040;SDS011;10181;48.072;9.884;2022-12-24T12:09:50;1.20;;;1.20;;
20040;SDS011;10181;48.072;9.884;2022-12-24T12:12:23;1.00;;;1.00;;
20040;SDS011;10181;48.072;9.884;2022-12-24T12:14:57;1.10;;;1.10;;
20040;SDS011;10181;48.072;9.884;2022-12-24T12:25:34;2.13;;;0.90;;
20040;SDS011;10181;48.072;9.884;2022-12-24T12:28:14;1.00;;;1.00;;
20040;SDS011;10181;48.072;9.884;2022-12-24T12:30:50;0.80;;;0.80;;
20040;SDS011;10181;48.072;9.884;2022-12-24T12:33:36;1.00;;;1.00;;
20040;SDS011;10181;48.072;9.884;2022-12-24T12:36:05;0.80;;;0.80;;
20040;SDS011;10181;48.072;9.884;2022-12-24T12:38:34;2.23;;;1.20;;
20040;SDS011;10181;48.072;9.884;2022-12-24T12:57:24;0.67;;;0.67;;
20040;SDS011;10181;48.072;9.884;2022-12-24T12:59:53;1.10;;;1.10;;
20040;SDS011;10181;48.072;9.884;2022-12-24T13:02:34;1.10;;;1.00;;
20040;SDS011;10181;48.072;9.884;2022-12-24T13:20:09;1.33;;;1.33;;
20040;SDS011;10181;48.072;9.884;2022-12-24T13:22:36;1.23;;;1.23;;
20040;SDS011;10181;48.072;9.884;2022-12-24T13:25:02;1.57;;;1.50;;
20040;SDS011;10181;48.072;9.884;2022-12-24T13:27:29;1.50;;;1.50;;
20040;SDS011;10181;48.072;9.884;2022-12-24T13:34:53;1.83;;;1.73;;
20040;SDS011;10181;48.072;9.884;2022-12-24T13:42:45;3.07;;;2.97;;
20040;SDS011;10181;48.072;9.884;2022-12-24T13:50:43;2.47;;;2.40;;
20040;SDS011;10181;48.072;9.884;2022-12-24T13:58:42;1.53;;;1.53;;
20040;SDS011;10181;48.072;9.884;2022-12-24T14:01:17;1.00;;;1.00;;
20040;SDS011;10181;48.072;9.884;2022-12-24T14:03:52;0.90;;;0.90;;
20040;SDS011;10181;48.072;9.884;2022-12-24T14:06:26;1.33;;;1.20;;
20040;SDS011;10181;48.072;9.884;2022-12-24T14:14:39;1.00;;;1.00;;
20040;SDS011;10181;48.072;9.884;2022-12-24T14:19:42;1.20;;;1.20;;
20040;SDS011;10181;48.072;9.884;2022-12-24T14:25:03;0.63;;;0.63;;
20040;SDS011;10181;48.072;9.884;2022-12-24T14:30:29;1.10;;;1.10;;
20040;SDS011;10181;48.072;9.884;2022-12-24T14:32:54;1.90;;;1.80;;
20040;SDS011;10181;48.072;9.884;2022-12-24T14:35:25;1.43;;;1.43;;
20040;SDS011;10181;48.072;9.884;2022-12-24T14:37:57;1.80;;;1.80;;
20040;SDS011;10181;48.072;9.884;2022-12-24T14:40:29;2.20;;;2.20;;
20040;SDS011;10181;48.072;9.884;2022-12-24T14:48:04;4.77;;;4.57;;
20040;SDS011;10181;48.072;9.884;2022-12-24T14:50:47;4.50;;;4.40;;
20040;SDS011;10181;48.072;9.884;2022-12-24T14:53:34;8.07;;;7.67;;
20040;SDS011;10181;48.072;9.884;2022-12-24T14:56:16;11.07;;;10.77;;
20040;SDS011;10181;48.072;9.884;2022-12-24T14:58:44;12.13;;;11.77;;
20040;SDS011;10181;48.072;9.884;2022-12-24T15:01:30;11.00;;;10.70;;
20040;SDS011;10181;48.072;9.884;2022-12-24T15:04:02;16.53;;;16.03;;
20040;SDS011;10181;48.072;9.884;2022-12-24T15:06:55;19.77;;;18.93;;
20040;SDS011;10181;48.072;9.884;2022-12-24T15:09:22;17.50;;;16.93;;
20040;SDS011;10181;48.072;9.884;2022-12-24T15:11:50;16.63;;;16.13;;
20040;SDS011;10181;48.072;9.884;2022-12-24T15:14:19;17.00;;;16.40;;
20040;SDS011;10181;48.072;9.884;2022-12-24T15:16:50;18.37;;;17.73;;
20040;SDS011;10181;48.072;9.884;2022-12-24T15:19:21;17.77;;;17.13;;
20040;SDS011;10181;48.072;9.884;2022-12-24T15:21:51;14.80;;;14.40;;
20040;SDS011;10181;48.072;9.884;2022-12-24T15:24:22;16.73;;;16.23;;
20040;SDS011;10181;48.072;9.884;2022-12-24T15:26:59;17.50;;;16.90;;
20040;SDS011;10181;48.072;9.884;2022-12-24T15:29:30;16.53;;;16.03;;
20040;SDS011;10181;48.072;9.884;2022-12-24T15:31:58;18.67;;;18.07;;
20040;SDS011;10181;48.072;9.884;2022-12-24T15:36:51;16.70;;;16.20;;
20040;SDS011;10181;48.072;9.884;2022-12-24T15:39:16;16.23;;;15.73;;
20040;SDS011;10181;48.072;9.884;2022-12-24T15:41:43;17.30;;;16.80;;
20040;SDS011;10181;48.072;9.884;2022-12-24T15:44:37;17.17;;;16.67;;
20040;SDS011;10181;48.072;9.884;2022-12-24T15:47:05;17.13;;;16.63;;
20040;SDS011;10181;48.072;9.884;2022-12-24T15:49:38;16.90;;;16.20;;
20040;SDS011;10181;48.072;9.884;2022-12-24T15:52:05;15.70;;;15.20;;
20040;SDS011;10181;48.072;9.884;2022-12-24T15:54:33;14.33;;;13.93;;
20040;SDS011;10181;48.072;9.884;2022-12-24T15:56:59;16.37;;;15.77;;
20040;SDS011;10181;48.072;9.884;2022-12-24T15:59:49;16.27;;;15.77;;
20040;SDS011;10181;48.072;9.884;2022-12-24T16:02:39;16.47;;;15.97;;
20040;SDS011;10181;48.072;9.884;2022-12-24T16:10:38;20.53;;;19.47;;
20040;SDS011;10181;48.072;9.884;2022-12-24T16:13:22;81.63;;;41.73;;
20040;SDS011;10181;48.072;9.884;2022-12-24T16:15:54;797.90;;;269.83;;
20040;SDS011;10181;48.072;9.884;2022-12-24T16:18:30;869.17;;;379.70;;
20040;SDS011;10181;48.072;9.884;2022-12-24T16:20:58;355.93;;;156.87;;
20040;SDS011;10181;48.072;9.884;2022-12-24T16:23:27;452.67;;;202.53;;
20040;SDS011;10181;48.072;9.884;2022-12-24T16:25:57;279.23;;;129.57;;
20040;SDS011;10181;48.072;9.884;2022-12-24T16:28:24;204.17;;;100.77;;
20040;SDS011;10181;48.072;9.884;2022-12-24T16:30:50;169.30;;;80.73;;
20040;SDS011;10181;48.072;9.884;2022-12-24T16:33:16;107.50;;;54.37;;
20040;SDS011;10181;48.072;9.884;2022-12-24T16:35:43;89.47;;;53.70;;
20040;SDS011;10181;48.072;9.884;2022-12-24T16:38:10;21.87;;;15.30;;
20040;SDS011;10181;48.072;9.884;2022-12-24T16:40:37;7.53;;;6.90;;
20040;SDS011;10181;48.072;9.884;2022-12-24T16:43:07;8.43;;;7.77;;
20040;SDS011;10181;48.072;9.884;2022-12-24T16:45:52;13.93;;;13.30;;
20040;SDS011;10181;48.072;9.884;2022-12-24T16:48:22;15.30;;;14.60;;
20040;SDS011;10181;48.072;9.884;2022-12-24T16:50:49;20.80;;;19.70;;
20040;SDS011;10181;48.072;9.884;2022-12-24T16:53:16;19.50;;;18.60;;
20040;SDS011;10181;48.072;9.884;2022-12-24T16:55:43;17.13;;;16.60;;
20040;SDS011;10181;48.072;9.884;2022-12-24T16:58:11;17.10;;;16.57;;
20040;SDS011;10181;48.072;9.884;2022-12-24T17:00:38;16.63;;;16.00;;
20040;SDS011;10181;48.072;9.884;2022-12-24T17:03:04;11.50;;;11.13;;
20040;SDS011;10181;48.072;9.884;2022-12-24T17:05:30;15.73;;;15.23;;
20040;SDS011;10181;48.072;9.884;2022-12-24T17:07:57;13.13;;;12.50;;
20040;SDS011;10181;48.072;9.884;2022-12-24T17:10:24;16.03;;;15.47;;
20040;SDS011;10181;48.072;9.884;2022-12-24T17:12:50;15.43;;;14.93;;